Time;durP1;ratioP1;P1;durP2;ratioP2;P2;SDS_P1;SDS_P2;PMS_P1;PMS_P2;Temp;Humidity;BMP_temperature;BMP_pressure;BME280_temperature;BME280_humidity;BME280_pressure;Samples;Min_cycle;Max_cycle;Signal;HPM_P1;HPM_P2
2022/03/02 00:01:29;;;;;;;35.42;30.10;;;6.00;99.90;;;;;;5074859;28;20040;-93
2022/03/02 00:03:55;;;;;;;36.08;29.85;;;6.10;99.90;;;;;;5060243;28;20040;-94
2022/03/02 00:06:21;;;;;;;36.28;24.67;;;6.10;99.90;;;;;;5056773;28;20328;-96
2022/03/02 00:08:46;;;;;;;36.85;24.45;;;6.10;99.90;;;;;;5054580;28;20472;-95
2022/03/02 00:11:12;;;;;;;34.13;23.48;;;6.00;99.90;;;;;;5075464;28;20041;-96
2022/03/02 00:13:39;;;;;;;33.70;23.25;;;6.00;99.90;;;;;;5060957;28;20110;-95
2022/03/02 00:16:05;;;;;;;35.83;23.63;;;6.00;99.90;;;;;;5073741;28;20048;-94
2022/03/02 00:18:30;;;;;;;36.35;31.00;;;6.00;99.90;;;;;;5058361;28;20063;-96
2022/03/02 00:20:56;;;;;;;36.30;29.70;;;6.00;99.90;;;;;;5061444;28;20040;-96
2022/03/02 00:23:22;;;;;;;34.65;29.52;;;6.00;99.90;;;;;;5067928;28;20465;-95
2022/03/02 00:25:48;;;;;;;37.55;24.83;;;6.10;99.90;;;;;;5076669;28;20040;-94
2022/03/02 00:28:14;;;;;;;34.45;24.23;;;6.00;99.90;;;;;;5078189;28;20067;-95
2022/03/02 00:30:40;;;;;;;35.92;23.50;;;5.90;99.90;;;;;;5063455;28;20040;-94
2022/03/02 00:33:07;;;;;;;35.03;30.42;;;5.90;99.90;;;;;;5060961;28;20092;-94
2022/03/02 00:35:34;;;;;;;36.53;24.23;;;6.00;99.90;;;;;;5058328;28;20141;-94
2022/03/02 00:38:02;;;;;;;33.85;24.85;;;5.90;99.90;;;;;;5058836;28;20041;-93
2022/03/02 00:40:28;;;;;;;37.05;24.55;;;5.90;99.90;;;;;;5076166;28;20044;-92
2022/03/02 00:42:54;;;;;;;35.35;24.50;;;5.90;99.90;;;;;;5077465;28;20043;-93
2022/03/02 00:45:19;;;;;;;33.67;23.40;;;5.90;99.90;;;;;;5058525;28;20039;-93
2022/03/02 00:47:45;;;;;;;35.70;22.67;;;5.80;99.90;;;;;;5059986;28;20054;-93
2022/03/02 00:50:12;;;;;;;35.90;24.70;;;5.80;99.90;;;;;;5079714;28;20515;-93
2022/03/02 00:52:41;;;;;;;40.33;24.63;;;5.80;99.90;;;;;;5076728;28;20040;-93
2022/03/02 00:55:07;;;;;;;35.53;24.02;;;5.80;99.90;;;;;;5056069;28;20041;-94
2022/03/02 00:57:32;;;;;;;36.95;23.40;;;5.70;99.90;;;;;;5058703;28;20036;-92
2022/03/02 00:59:58;;;;;;;32.25;21.42;;;5.70;99.90;;;;;;5059764;28;20048;-93
2022/03/02 01:02:24;;;;;;;37.70;24.30;;;5.60;99.90;;;;;;5075403;28;20066;-93
2022/03/02 01:04:50;;;;;;;36.22;24.55;;;5.80;99.90;;;;;;5067086;28;20492;-92
2022/03/02 01:07:16;;;;;;;36.65;24.80;;;5.60;99.90;;;;;;5081076;28;20419;-94
2022/03/02 01:09:42;;;;;;;36.10;23.13;;;5.60;99.90;;;;;;5072593;28;20044;-93
2022/03/02 01:12:07;;;;;;;37.28;24.40;;;5.60;99.90;;;;;;5057904;28;20065;-93
2022/03/02 01:14:33;;;;;;;37.00;24.40;;;5.60;99.90;;;;;;5057123;28;20117;-93
2022/03/02 01:16:59;;;;;;;36.97;23.58;;;5.50;99.90;;;;;;5065388;28;20040;-92
2022/03/02 01:19:25;;;;;;;36.38;24.85;;;5.60;99.90;;;;;;5061625;28;20051;-93
2022/03/02 01:21:51;;;;;;;39.20;24.13;;;5.50;99.90;;;;;;5077864;28;20131;-93
2022/03/02 01:24:16;;;;;;;37.30;24.67;;;5.50;99.90;;;;;;5062331;28;20043;-93
2022/03/02 01:26:44;;;;;;;37.85;24.30;;;5.50;99.90;;;;;;5064751;28;20040;-92
2022/03/02 01:29:10;;;;;;;39.22;24.35;;;5.50;99.90;;;;;;5059761;28;20139;-93
2022/03/02 01:31:35;;;;;;;37.55;25.77;;;5.50;99.90;;;;;;5080875;28;20189;-93
2022/03/02 01:34:01;;;;;;;37.55;25.38;;;5.50;99.90;;;;;;5059922;28;20041;-93
2022/03/02 01:36:27;;;;;;;40.88;24.90;;;5.50;99.90;;;;;;5079210;28;20032;-93
2022/03/02 01:38:53;;;;;;;35.58;25.55;;;5.50;99.90;;;;;;5077598;28;20086;-92
2022/03/02 01:41:26;;;;;;;35.55;24.65;;;5.50;99.90;;;;;;5060730;28;20127;-94
2022/03/02 01:43:53;;;;;;;35.63;22.45;;;5.50;99.90;;;;;;5075866;28;20041;-94
2022/03/02 01:46:20;;;;;;;36.05;24.45;;;5.50;99.90;;;;;;5073104;28;20176;-93
2022/03/02 01:48:46;;;;;;;37.47;25.08;;;5.50;99.90;;;;;;5073983;28;20076;-93
2022/03/02 01:51:13;;;;;;;40.45;25.45;;;5.50;99.90;;;;;;5058724;28;20053;-93
2022/03/02 01:53:40;;;;;;;39.13;27.05;;;5.40;99.90;;;;;;5076434;28;20048;-94
2022/03/02 01:56:06;;;;;;;38.25;25.80;;;5.40;99.90;;;;;;5072369;28;20053;-93
2022/03/02 01:58:32;;;;;;;37.00;24.83;;;5.50;99.90;;;;;;5057135;28;20044;-93
2022/03/02 02:00:59;;;;;;;36.90;24.17;;;5.40;99.90;;;;;;5062734;28;20088;-94
2022/03/02 02:03:25;;;;;;;38.53;25.13;;;5.40;99.90;;;;;;5074033;28;20447;-92
2022/03/02 02:05:51;;;;;;;36.78;24.95;;;5.40;99.90;;;;;;5079082;28;20040;-93
2022/03/02 02:08:17;;;;;;;37.38;25.42;;;5.30;99.90;;;;;;5055900;28;20047;-93
2022/03/02 02:10:42;;;;;;;39.17;24.33;;;5.30;99.90;;;;;;5079976;28;20052;-92
2022/03/02 02:13:09;;;;;;;37.13;24.65;;;5.30;99.90;;;;;;5078009;28;20050;-93
2022/03/02 02:15:35;;;;;;;37.45;25.02;;;5.30;99.90;;;;;;5075237;28;20044;-93
2022/03/02 02:18:00;;;;;;;38.30;25.38;;;5.20;99.90;;;;;;5083059;28;20081;-93
2022/03/02 02:20:26;;;;;;;35.13;24.63;;;5.20;99.90;;;;;;5085491;28;20450;-93
2022/03/02 02:22:52;;;;;;;37.88;25.90;;;5.20;99.90;;;;;;5082724;28;20066;-93
2022/03/02 02:25:18;;;;;;;39.40;25.33;;;5.20;99.90;;;;;;5064015;28;20039;-93
2022/03/02 02:27:45;;;;;;;37.65;24.75;;;5.20;99.90;;;;;;5063357;28;20403;-93
2022/03/02 02:30:14;;;;;;;36.42;23.80;;;5.20;99.90;;;;;;5057139;28;20094;-93
2022/03/02 02:32:41;;;;;;;39.10;27.23;;;5.10;99.90;;;;;;5073920;28;20071;-93
2022/03/02 02:35:08;;;;;;;40.75;27.13;;;5.10;99.90;;;;;;5072388;28;20045;-93
2022/03/02 02:37:35;;;;;;;40.25;25.10;;;5.10;99.90;;;;;;5060081;28;20067;-93
2022/03/02 02:40:08;;;;;;;40.83;25.58;;;5.10;99.90;;;;;;5061251;28;20056;-92
2022/03/02 02:42:34;;;;;;;40.65;25.80;;;5.10;99.90;;;;;;5058703;28;20052;-93
2022/03/02 02:45:01;;;;;;;37.88;26.58;;;5.10;99.90;;;;;;5077434;28;20040;-92
2022/03/02 02:47:26;;;;;;;42.15;27.15;;;5.10;99.90;;;;;;5076156;28;20036;-93
2022/03/02 02:49:52;;;;;;;38.65;26.55;;;5.00;99.90;;;;;;5055589;28;20101;-93
2022/03/02 02:52:18;;;;;;;40.72;26.70;;;5.10;99.90;;;;;;5058352;28;20952;-94
2022/03/02 02:54:43;;;;;;;36.67;26.85;;;5.10;99.90;;;;;;5060388;28;20115;-93
2022/03/02 02:57:09;;;;;;;38.65;27.65;;;5.10;99.90;;;;;;5057027;28;20037;-94
2022/03/02 02:59:35;;;;;;;41.55;27.45;;;5.10;99.90;;;;;;5061387;28;20048;-93
2022/03/02 03:02:01;;;;;;;37.95;24.48;;;5.10;99.90;;;;;;5077781;28;20415;-93
2022/03/02 03:04:27;;;;;;;39.10;24.83;;;5.10;99.90;;;;;;5063235;28;20059;-93
2022/03/02 03:06:52;;;;;;;40.40;25.50;;;5.10;99.90;;;;;;5068860;28;20052;-94
2022/03/02 03:09:18;;;;;;;41.97;28.83;;;5.10;99.90;;;;;;5059217;28;20269;-93
2022/03/02 03:11:44;;;;;;;40.03;24.80;;;5.10;99.90;;;;;;5059810;28;20059;-93
2022/03/02 03:14:12;;;;;;;40.65;27.60;;;5.10;99.90;;;;;;5053454;28;20067;-93
2022/03/02 03:16:39;;;;;;;43.63;27.95;;;5.10;99.90;;;;;;5057329;28;20435;-93
2022/03/02 03:19:05;;;;;;;39.95;33.70;;;5.10;99.90;;;;;;5075802;28;20503;-93
2022/03/02 03:21:31;;;;;;;40.83;28.35;;;5.20;99.90;;;;;;5075559;28;20120;-93
2022/03/02 03:23:56;;;;;;;42.45;26.08;;;5.10;99.90;;;;;;5041696;28;20044;-93
2022/03/02 03:26:22;;;;;;;39.90;24.45;;;5.10;99.90;;;;;;5075084;28;20043;-93
2022/03/02 03:28:48;;;;;;;41.83;26.95;;;5.10;99.90;;;;;;5069076;28;20040;-92
2022/03/02 03:31:14;;;;;;;40.85;27.38;;;5.00;99.90;;;;;;5054368;28;20109;-93
2022/03/02 03:33:39;;;;;;;39.92;25.02;;;5.00;99.90;;;;;;5071405;28;20044;-93
2022/03/02 03:36:05;;;;;;;44.28;25.85;;;5.00;99.90;;;;;;5056389;28;20533;-94
2022/03/02 03:38:31;;;;;;;39.33;25.98;;;4.90;99.90;;;;;;5076876;28;20040;-92
2022/03/02 03:40:56;;;;;;;44.50;26.98;;;4.90;99.90;;;;;;5058103;28;20093;-93
2022/03/02 03:43:22;;;;;;;42.45;28.25;;;4.90;99.90;;;;;;5069905;28;20185;-93
2022/03/02 03:45:49;;;;;;;42.38;26.83;;;4.90;99.90;;;;;;5072565;28;20048;-93
2022/03/02 03:48:15;;;;;;;41.88;25.65;;;4.90;99.90;;;;;;5074072;28;20062;-94
2022/03/02 03:50:41;;;;;;;42.78;28.25;;;4.90;99.90;;;;;;5071483;28;20082;-92
2022/03/02 03:53:07;;;;;;;46.85;31.02;;;4.90;99.90;;;;;;5070699;28;20060;-94
2022/03/02 03:55:33;;;;;;;44.20;29.48;;;4.90;99.90;;;;;;5072676;28;20424;-93
2022/03/02 03:57:58;;;;;;;43.72;29.48;;;4.90;99.90;;;;;;5076040;28;20943;-92
2022/03/02 04:00:24;;;;;;;43.78;28.30;;;4.80;99.90;;;;;;5056849;28;20071;-93
2022/03/02 04:02:49;;;;;;;41.78;27.20;;;4.80;99.90;;;;;;5075814;28;20036;-93
2022/03/02 04:05:16;;;;;;;46.17;29.58;;;4.80;99.90;;;;;;5075557;28;20044;-93
2022/03/02 04:07:42;;;;;;;43.05;28.33;;;4.80;99.90;;;;;;5078132;28;20044;-94
2022/03/02 04:10:09;;;;;;;46.25;28.65;;;4.80;99.90;;;;;;5052659;28;20900;-93
2022/03/02 04:12:36;;;;;;;45.35;27.42;;;4.80;99.90;;;;;;5058101;28;20060;-93
2022/03/02 04:15:03;;;;;;;44.00;27.75;;;4.70;99.90;;;;;;5066998;28;20041;-93
2022/03/02 04:17:29;;;;;;;47.05;29.55;;;4.70;99.90;;;;;;5055848;28;20489;-95
2022/03/02 04:19:54;;;;;;;47.45;28.52;;;4.80;99.90;;;;;;5057405;28;20051;-95
2022/03/02 04:22:20;;;;;;;44.13;28.20;;;4.70;99.90;;;;;;5072914;28;20037;-93
2022/03/02 04:24:46;;;;;;;48.22;29.60;;;4.70;99.90;;;;;;5070956;28;20048;-95
2022/03/02 04:27:12;;;;;;;47.50;28.45;;;4.70;99.90;;;;;;5070267;28;20044;-95
2022/03/02 04:29:38;;;;;;;44.63;29.90;;;4.70;99.90;;;;;;5074109;28;20051;-94
2022/03/02 04:32:04;;;;;;;49.75;29.63;;;4.60;99.90;;;;;;5055439;28;20043;-95
2022/03/02 04:34:29;;;;;;;45.92;28.10;;;4.60;99.90;;;;;;5076095;28;20044;-94
2022/03/02 04:36:55;;;;;;;49.45;28.92;;;4.60;99.90;;;;;;5053440;28;20189;-94
2022/03/02 04:39:20;;;;;;;43.97;28.98;;;4.60;99.90;;;;;;5077994;28;20511;-94
2022/03/02 04:41:46;;;;;;;42.55;28.67;;;4.60;99.90;;;;;;5075804;28;20044;-93
2022/03/02 04:44:12;;;;;;;45.38;27.60;;;4.60;99.90;;;;;;5077896;28;20446;-93
2022/03/02 04:46:37;;;;;;;47.40;29.60;;;4.50;99.90;;;;;;5059770;28;20135;-94
2022/03/02 04:49:10;;;;;;;43.13;29.17;;;4.50;99.90;;;;;;5074457;28;20044;-92
2022/03/02 04:51:40;;;;;;;42.88;26.95;;;4.50;99.90;;;;;;5073644;28;20054;-93
2022/03/02 04:54:07;;;;;;;44.00;27.17;;;4.50;99.90;;;;;;5059499;28;20094;-94
2022/03/02 04:56:33;;;;;;;45.30;28.85;;;4.40;99.90;;;;;;5058420;28;20055;-92
2022/03/02 04:59:01;;;;;;;47.10;30.17;;;4.40;99.90;;;;;;5075259;28;20064;-93
2022/03/02 05:01:28;;;;;;;45.72;29.85;;;4.40;99.90;;;;;;5063318;28;20040;-92
2022/03/02 05:03:54;;;;;;;44.80;30.55;;;4.40;99.90;;;;;;5060474;28;20040;-93
2022/03/02 05:06:20;;;;;;;45.03;29.25;;;4.30;99.90;;;;;;5078222;28;20445;-94
2022/03/02 05:08:46;;;;;;;45.20;27.27;;;4.30;99.90;;;;;;5086315;28;20048;-94
2022/03/02 05:11:11;;;;;;;42.92;28.95;;;4.30;99.90;;;;;;5043347;28;20044;-94
2022/03/02 05:13:37;;;;;;;45.17;29.13;;;4.30;99.90;;;;;;5059687;28;20127;-93
2022/03/02 05:16:03;;;;;;;47.03;30.17;;;4.30;99.90;;;;;;5055565;28;20469;-93
2022/03/02 05:18:28;;;;;;;44.97;28.08;;;4.30;99.90;;;;;;5060444;28;20105;-94
2022/03/02 05:20:54;;;;;;;44.55;28.02;;;4.30;99.90;;;;;;5059804;28;20565;-94
2022/03/02 05:23:20;;;;;;;43.20;27.92;;;4.30;99.90;;;;;;5056183;28;20074;-93
2022/03/02 05:25:45;;;;;;;47.55;29.35;;;4.30;99.90;;;;;;5077610;28;20484;-93
2022/03/02 05:28:11;;;;;;;47.20;28.88;;;4.30;99.90;;;;;;5080633;28;20054;-92
2022/03/02 05:30:37;;;;;;;46.53;28.02;;;4.30;99.90;;;;;;5061411;28;20044;-94
2022/03/02 05:33:03;;;;;;;49.05;30.20;;;4.30;99.90;;;;;;5058426;28;20098;-94
2022/03/02 05:35:29;;;;;;;45.08;28.73;;;4.20;99.90;;;;;;5075775;28;20062;-93
2022/03/02 05:37:54;;;;;;;44.97;28.10;;;4.30;99.90;;;;;;5079410;28;20036;-93
2022/03/02 05:40:21;;;;;;;44.55;28.65;;;4.20;99.90;;;;;;5074574;28;20078;-94
2022/03/02 05:42:47;;;;;;;44.50;26.80;;;4.20;99.90;;;;;;5065398;28;20079;-93
2022/03/02 05:45:13;;;;;;;46.75;28.00;;;4.20;99.90;;;;;;5056252;28;20126;-93
2022/03/02 05:47:39;;;;;;;50.08;27.90;;;4.20;99.90;;;;;;5071006;28;20070;-94
2022/03/02 05:50:07;;;;;;;43.72;28.58;;;4.20;99.90;;;;;;5077285;28;20044;-94
2022/03/02 05:52:33;;;;;;;47.53;28.63;;;4.20;99.90;;;;;;5061129;28;20040;-93
2022/03/02 05:54:58;;;;;;;48.78;28.60;;;4.20;99.90;;;;;;5058629;28;20196;-94
2022/03/02 05:57:24;;;;;;;47.72;27.88;;;4.20;99.90;;;;;;5072486;28;20060;-94
2022/03/02 05:59:50;;;;;;;45.63;28.83;;;4.10;99.90;;;;;;5058127;28;20260;-93
2022/03/02 06:02:16;;;;;;;48.47;28.50;;;4.20;99.90;;;;;;5058283;28;20056;-94
2022/03/02 06:04:41;;;;;;;43.03;26.77;;;4.10;99.90;;;;;;5057244;28;20166;-94
2022/03/02 06:07:07;;;;;;;42.95;26.70;;;4.10;99.90;;;;;;5063501;28;20192;-92
2022/03/02 06:09:32;;;;;;;47.17;27.20;;;4.10;99.90;;;;;;5060000;28;20055;-93
2022/03/02 06:11:58;;;;;;;45.55;26.27;;;4.00;99.90;;;;;;5059347;28;20442;-93
2022/03/02 06:14:24;;;;;;;46.97;26.45;;;4.00;99.90;;;;;;5042131;28;20151;-90
2022/03/02 06:16:50;;;;;;;45.55;28.83;;;3.90;99.90;;;;;;5077852;28;20516;-93
2022/03/02 06:19:16;;;;;;;44.08;28.55;;;3.90;99.90;;;;;;5058527;28;20031;-92
2022/03/02 06:21:43;;;;;;;47.67;27.80;;;3.80;99.90;;;;;;5070930;28;20439;-90
2022/03/02 06:24:10;;;;;;;44.28;27.60;;;3.80;99.90;;;;;;5075427;28;20740;-91
2022/03/02 06:26:36;;;;;;;44.65;26.90;;;3.70;99.90;;;;;;5059389;28;20040;-93
2022/03/02 06:29:02;;;;;;;45.15;26.70;;;3.70;99.90;;;;;;5037428;28;20414;-92
2022/03/02 06:31:27;;;;;;;42.83;25.98;;;3.60;99.90;;;;;;5074607;28;20116;-93
2022/03/02 06:33:53;;;;;;;45.25;27.80;;;3.60;99.90;;;;;;5076855;28;20130;-94
2022/03/02 06:36:20;;;;;;;45.55;27.73;;;3.60;99.90;;;;;;5058332;28;20040;-95
2022/03/02 06:38:46;;;;;;;44.28;27.30;;;3.60;99.90;;;;;;5060638;28;20045;-95
2022/03/02 06:41:43;;;;;;;44.15;26.83;;;3.60;99.90;;;;;;5054043;28;20052;-93
2022/03/02 06:44:21;;;;;;;42.50;26.33;;;3.60;99.90;;;;;;5069695;28;20048;-94
2022/03/02 06:47:01;;;;;;;43.92;25.42;;;3.50;99.90;;;;;;5059342;28;20066;-95
2022/03/02 06:49:34;;;;;;;45.03;26.05;;;3.50;99.90;;;;;;5058328;28;20373;-95
2022/03/02 06:52:02;;;;;;;42.30;25.85;;;3.40;99.90;;;;;;5077406;28;20044;-94
2022/03/02 06:54:32;;;;;;;42.63;25.08;;;3.40;99.90;;;;;;5061352;28;20127;-92
2022/03/02 06:57:00;;;;;;;38.90;23.55;;;3.30;99.90;;;;;;5056459;28;20047;-90
2022/03/02 06:59:33;;;;;;;42.42;25.55;;;3.30;99.90;;;;;;5054057;28;20605;-90
2022/03/02 07:02:02;;;;;;;42.88;25.63;;;3.20;99.90;;;;;;5054269;28;20492;-92
2022/03/02 07:04:33;;;;;;;44.92;24.88;;;3.30;99.90;;;;;;5074392;28;20422;-94
2022/03/02 07:07:02;;;;;;;42.67;26.42;;;3.10;99.90;;;;;;5053931;28;20048;-95
2022/03/02 07:09:29;;;;;;;44.97;26.33;;;3.10;99.90;;;;;;5080958;28;20048;-94
2022/03/02 07:11:55;;;;;;;47.92;27.17;;;3.10;99.90;;;;;;5050134;28;20094;-91
2022/03/02 07:14:22;;;;;;;43.10;25.55;;;3.20;99.90;;;;;;5073974;28;20155;-93
2022/03/02 07:16:48;;;;;;;46.65;27.05;;;3.10;99.90;;;;;;5063570;28;20142;-91
2022/03/02 07:19:13;;;;;;;46.33;26.65;;;3.20;99.90;;;;;;5055505;28;20127;-92
2022/03/02 07:21:44;;;;;;;44.33;27.80;;;3.20;99.90;;;;;;5055767;28;20047;-92
2022/03/02 07:24:17;;;;;;;45.92;27.67;;;3.20;99.90;;;;;;5064027;28;20045;-93
2022/03/02 07:26:51;;;;;;;44.92;26.20;;;3.20;99.90;;;;;;5078798;28;20075;-92
2022/03/02 07:29:20;;;;;;;45.47;25.95;;;3.20;99.90;;;;;;5052940;28;20048;-91
2022/03/02 07:31:46;;;;;;;43.92;25.88;;;3.20;99.90;;;;;;5078200;28;20041;-92
2022/03/02 07:34:13;;;;;;;47.58;27.08;;;3.20;99.90;;;;;;5038695;28;20040;-91
2022/03/02 07:36:41;;;;;;;45.83;27.70;;;3.20;99.90;;;;;;5074215;28;20036;-92
2022/03/02 07:39:08;;;;;;;47.30;28.27;;;3.20;99.90;;;;;;5073951;28;20136;-92
2022/03/02 07:41:34;;;;;;;46.90;28.40;;;3.20;99.90;;;;;;5074887;28;20041;-92
2022/03/02 07:43:59;;;;;;;50.63;28.02;;;3.20;99.90;;;;;;5069849;28;20397;-92
2022/03/02 07:46:28;;;;;;;45.70;26.25;;;3.10;99.90;;;;;;5036517;28;20041;-91
2022/03/02 07:48:54;;;;;;;47.90;27.63;;;3.10;99.90;;;;;;5061723;28;20479;-93
2022/03/02 07:51:22;;;;;;;48.20;28.40;;;3.10;99.90;;;;;;5072094;28;20067;-92
2022/03/02 07:53:49;;;;;;;50.80;28.15;;;3.10;99.90;;;;;;5075425;28;20040;-93
2022/03/02 07:56:17;;;;;;;48.25;28.58;;;3.10;99.90;;;;;;5075168;28;20048;-92
2022/03/02 07:58:43;;;;;;;46.33;28.52;;;3.10;99.90;;;;;;5056653;28;20052;-92
2022/03/02 08:01:13;;;;;;;51.17;29.48;;;3.20;99.90;;;;;;5074669;28;20107;-92
2022/03/02 08:03:42;;;;;;;49.70;28.60;;;3.10;99.90;;;;;;5070922;28;20051;-92
2022/03/02 08:06:08;;;;;;;47.20;29.20;;;3.20;99.90;;;;;;5074768;28;20329;-92
2022/03/02 08:08:38;;;;;;;49.40;29.92;;;3.30;99.90;;;;;;5054652;28;20060;-92
2022/03/02 08:11:05;;;;;;;49.35;28.45;;;3.40;99.90;;;;;;5055602;28;20040;-91
2022/03/02 08:13:32;;;;;;;49.88;28.83;;;3.50;99.90;;;;;;5073324;28;20044;-92
2022/03/02 08:15:58;;;;;;;46.50;27.45;;;3.70;99.90;;;;;;5056861;28;20110;-92
2022/03/02 08:18:24;;;;;;;48.67;27.00;;;3.90;99.90;;;;;;5072760;28;20052;-93
2022/03/02 08:20:51;;;;;;;44.40;26.58;;;3.90;99.90;;;;;;5054010;28;20135;-92
2022/03/02 08:23:19;;;;;;;43.70;26.13;;;4.00;99.90;;;;;;5038195;28;20136;-93
2022/03/02 08:25:47;;;;;;;42.72;26.83;;;4.10;99.90;;;;;;5072838;28;20131;-92
2022/03/02 08:28:15;;;;;;;43.20;26.55;;;4.20;99.90;;;;;;5074951;28;20052;-93
2022/03/02 08:30:42;;;;;;;43.40;26.52;;;4.30;99.90;;;;;;5077650;28;20072;-94
2022/03/02 08:33:11;;;;;;;41.53;26.98;;;4.40;99.90;;;;;;5065523;28;20047;-92
2022/03/02 08:35:39;;;;;;;41.05;25.15;;;4.50;99.90;;;;;;5075854;28;20454;-92
2022/03/02 08:38:04;;;;;;;43.72;27.00;;;4.60;99.90;;;;;;5076495;28;20068;-93
2022/03/02 08:40:30;;;;;;;39.50;24.90;;;4.70;99.90;;;;;;5062858;28;20078;-91
2022/03/02 08:43:00;;;;;;;43.20;25.63;;;4.80;99.90;;;;;;5035755;28;20051;-93
2022/03/02 08:45:27;;;;;;;43.00;25.45;;;4.90;99.90;;;;;;5063057;28;20083;-93
2022/03/02 08:47:54;;;;;;;41.53;27.45;;;5.00;99.90;;;;;;5065806;28;20476;-92
2022/03/02 08:50:20;;;;;;;40.05;26.55;;;5.00;99.90;;;;;;5077755;28;20103;-93
2022/03/02 08:52:47;;;;;;;42.83;28.20;;;5.10;99.90;;;;;;5060660;28;20123;-92
2022/03/02 08:55:13;;;;;;;40.42;27.20;;;5.20;99.90;;;;;;5081430;28;20051;-93
2022/03/02 08:57:43;;;;;;;39.58;26.13;;;5.30;99.90;;;;;;5060984;28;20036;-93
2022/03/02 09:00:11;;;;;;;39.47;25.73;;;5.40;99.90;;;;;;5059516;28;20056;-94
2022/03/02 09:02:39;;;;;;;37.88;25.10;;;5.50;99.90;;;;;;5076137;28;20040;-92
2022/03/02 09:05:06;;;;;;;37.28;25.52;;;5.60;99.90;;;;;;5057674;28;20075;-92
2022/03/02 09:07:32;;;;;;;37.03;25.60;;;5.60;99.90;;;;;;5063445;28;20035;-92
2022/03/02 09:09:59;;;;;;;37.53;24.42;;;5.80;99.90;;;;;;5079323;28;20051;-92
2022/03/02 09:12:25;;;;;;;36.30;24.40;;;5.80;99.90;;;;;;5056988;28;20078;-93
2022/03/02 09:14:50;;;;;;;37.65;25.60;;;5.90;99.90;;;;;;5075802;28;20088;-92
2022/03/02 09:17:18;;;;;;;35.40;24.75;;;6.00;99.90;;;;;;5072240;28;20480;-91
2022/03/02 09:19:44;;;;;;;34.13;24.85;;;6.10;99.90;;;;;;5076557;28;20048;-92
2022/03/02 09:22:10;;;;;;;35.80;24.33;;;6.20;99.90;;;;;;5054166;28;20086;-92
2022/03/02 09:24:38;;;;;;;35.38;23.90;;;6.30;99.90;;;;;;5054973;28;20052;-92
2022/03/02 09:27:07;;;;;;;36.00;24.27;;;6.40;99.90;;;;;;5055555;28;20105;-93
2022/03/02 09:29:33;;;;;;;36.70;25.90;;;6.40;99.90;;;;;;5060660;28;20085;-93
2022/03/02 09:32:03;;;;;;;35.20;24.73;;;6.60;99.90;;;;;;5076509;28;20069;-94
2022/03/02 09:34:29;;;;;;;33.13;24.30;;;6.60;99.90;;;;;;5078796;28;20541;-92
2022/03/02 09:36:57;;;;;;;33.55;23.38;;;6.70;99.90;;;;;;5036114;28;20075;-93
2022/03/02 09:39:24;;;;;;;32.38;22.10;;;6.70;99.90;;;;;;5072350;28;20393;-93
2022/03/02 09:41:54;;;;;;;33.35;23.30;;;6.80;99.90;;;;;;5080336;28;20467;-92
2022/03/02 09:44:21;;;;;;;31.60;22.27;;;6.90;99.90;;;;;;5061615;28;20032;-92
2022/03/02 09:46:55;;;;;;;29.17;22.00;;;7.00;99.90;;;;;;5064920;28;20040;-93
2022/03/02 09:49:22;;;;;;;33.33;22.60;;;7.00;99.90;;;;;;5058034;28;20083;-93
2022/03/02 09:51:52;;;;;;;31.95;23.55;;;7.10;99.90;;;;;;5077281;28;20048;-93
2022/03/02 09:54:22;;;;;;;32.50;21.98;;;7.20;99.90;;;;;;5045732;28;20033;-92
2022/03/02 09:56:50;;;;;;;32.35;22.52;;;7.20;99.90;;;;;;5077400;28;20415;-93
2022/03/02 09:59:17;;;;;;;32.45;22.42;;;7.30;99.90;;;;;;5080592;28;20122;-93
2022/03/02 10:01:44;;;;;;;30.08;20.63;;;7.20;99.90;;;;;;5077149;28;20098;-92
2022/03/02 10:04:22;;;;;;;29.58;23.30;;;7.40;99.90;;;;;;5059029;28;20110;-92
2022/03/02 10:06:50;;;;;;;29.65;22.85;;;7.50;99.90;;;;;;5061421;28;20138;-92
2022/03/02 10:09:20;;;;;;;32.75;23.25;;;7.60;99.90;;;;;;5060706;28;20041;-93
2022/03/02 10:11:47;;;;;;;29.00;22.70;;;7.60;99.90;;;;;;5075150;28;20048;-93
2022/03/02 10:14:16;;;;;;;29.10;22.98;;;7.70;99.90;;;;;;5060049;28;20531;-93
2022/03/02 10:16:44;;;;;;;32.25;21.58;;;7.70;99.90;;;;;;5061018;28;20047;-94
2022/03/02 10:19:20;;;;;;;31.98;23.02;;;7.70;99.90;;;;;;5072776;28;20136;-93
2022/03/02 10:22:09;;;;;;;30.90;21.60;;;7.70;99.90;;;;;;5071354;28;20056;-92
2022/03/02 10:24:48;;;;;;;28.25;21.08;;;7.80;99.90;;;;;;5060381;28;20036;-93
2022/03/02 10:27:39;;;;;;;28.00;20.15;;;7.80;99.90;;;;;;5053761;28;20041;-92
2022/03/02 10:30:10;;;;;;;26.50;19.88;;;7.90;99.90;;;;;;5075740;28;20044;-94
2022/03/02 10:32:40;;;;;;;25.92;20.25;;;8.00;99.90;;;;;;5058347;28;20080;-93
2022/03/02 10:35:09;;;;;;;27.98;20.27;;;8.00;99.90;;;;;;5052923;28;20059;-93
2022/03/02 10:37:36;;;;;;;25.13;18.52;;;8.10;99.90;;;;;;5057365;28;20040;-93
2022/03/02 10:40:16;;;;;;;25.42;19.05;;;8.20;99.90;;;;;;5063434;28;20472;-93
2022/03/02 10:42:59;;;;;;;25.48;19.77;;;8.30;99.90;;;;;;5056087;28;20510;-93
2022/03/02 10:45:35;;;;;;;25.30;18.67;;;8.30;97.10;;;;;;5069513;28;20052;-93
2022/03/02 10:48:32;;;;;;;26.20;18.15;;;8.40;96.70;;;;;;5056590;28;20490;-95
2022/03/02 10:50:59;;;;;;;24.02;18.20;;;8.40;83.00;;;;;;5072261;28;20063;-93
2022/03/02 10:53:26;;;;;;;24.63;19.23;;;8.50;94.00;;;;;;5073780;28;20389;-93
2022/03/02 10:55:57;;;;;;;24.83;18.83;;;8.50;92.60;;;;;;5073469;28;20373;-94
2022/03/02 10:58:27;;;;;;;24.92;18.75;;;8.50;90.00;;;;;;5057213;28;20484;-93
2022/03/02 11:00:52;;;;;;;24.80;18.67;;;8.60;84.30;;;;;;5079748;28;20070;-92
2022/03/02 11:03:19;;;;;;;23.02;17.88;;;8.70;84.60;;;;;;5074018;28;20060;-95
2022/03/02 11:05:45;;;;;;;24.92;17.98;;;8.70;78.00;;;;;;5079316;28;20163;-93
2022/03/02 11:08:11;;;;;;;25.67;19.08;;;8.80;79.70;;;;;;5073195;28;20036;-94
2022/03/02 11:10:40;;;;;;;24.23;19.13;;;8.90;76.40;;;;;;5074946;28;20052;-92
2022/03/02 11:13:13;;;;;;;25.08;19.40;;;9.00;74.60;;;;;;5070594;28;20122;-91
2022/03/02 11:15:46;;;;;;;24.35;19.23;;;8.90;75.90;;;;;;5052192;28;20040;-93
2022/03/02 11:18:16;;;;;;;23.95;18.60;;;9.00;73.40;;;;;;5061540;28;20200;-93
2022/03/02 11:20:59;;;;;;;22.58;17.95;;;9.00;76.70;;;;;;5078945;28;20048;-92
2022/03/02 11:23:26;;;;;;;24.00;18.83;;;9.10;71.40;;;;;;5071200;28;20048;-92
2022/03/02 11:25:54;;;;;;;23.25;18.35;;;9.10;77.60;;;;;;5055797;28;20062;-92
2022/03/02 11:28:24;;;;;;;22.52;18.40;;;9.20;79.20;;;;;;5061009;28;20072;-92
2022/03/02 11:30:57;;;;;;;25.50;19.45;;;9.30;78.80;;;;;;5071077;28;20052;-93
2022/03/02 11:33:26;;;;;;;25.10;19.58;;;9.40;77.20;;;;;;5078290;28;20404;-92
2022/03/02 11:36:02;;;;;;;23.23;18.75;;;9.40;76.50;;;;;;5058729;28;20051;-91
2022/03/02 11:38:30;;;;;;;23.58;18.58;;;9.50;75.70;;;;;;5053128;28;20166;-92
2022/03/02 11:40:57;;;;;;;26.05;19.83;;;9.40;72.70;;;;;;5051417;28;20060;-94
2022/03/02 11:43:28;;;;;;;24.85;18.58;;;9.50;73.00;;;;;;5074326;28;20044;-92
2022/03/02 11:45:58;;;;;;;24.88;18.88;;;9.50;72.60;;;;;;5077401;28;20495;-92
2022/03/02 11:48:32;;;;;;;25.65;19.33;;;9.60;73.60;;;;;;5072200;28;20062;-92
2022/03/02 11:51:14;;;;;;;24.38;20.00;;;9.60;72.30;;;;;;5077869;28;20059;-92
2022/03/02 11:53:41;;;;;;;26.48;21.48;;;9.60;74.60;;;;;;5072487;28;20036;-91
2022/03/02 11:56:10;;;;;;;25.42;20.42;;;9.60;76.20;;;;;;5057365;28;20059;-93
2022/03/02 11:58:58;;;;;;;25.52;20.90;;;9.60;77.20;;;;;;5070577;28;20036;-92
2022/03/02 12:01:25;;;;;;;25.60;20.33;;;9.60;73.00;;;;;;5076018;28;20823;-91
2022/03/02 12:03:59;;;;;;;25.65;20.25;;;9.60;79.10;;;;;;5052573;28;20035;-92
2022/03/02 12:06:27;;;;;;;26.05;20.27;;;9.70;75.60;;;;;;5079919;28;20088;-92
2022/03/02 12:08:57;;;;;;;24.00;20.48;;;9.80;78.90;;;;;;5074220;28;20080;-92
2022/03/02 12:11:24;;;;;;;27.05;21.08;;;9.80;77.80;;;;;;5063149;28;20081;-92
2022/03/02 12:14:04;;;;;;;25.88;20.40;;;9.80;78.40;;;;;;5082110;28;20028;-90
2022/03/02 12:16:53;;;;;;;26.27;20.52;;;9.80;76.50;;;;;;5071316;28;20051;-92
2022/03/02 12:19:30;;;;;;;24.17;20.27;;;9.80;74.20;;;;;;5071583;28;20404;-91
2022/03/02 12:22:10;;;;;;;26.77;20.25;;;9.90;74.70;;;;;;5073345;28;20056;-93
2022/03/02 12:24:36;;;;;;;24.83;21.58;;;9.90;77.10;;;;;;5063037;28;20051;-94
2022/03/02 12:27:10;;;;;;;24.83;21.13;;;9.90;75.00;;;;;;5070908;28;20045;-91
2022/03/02 12:29:38;;;;;;;25.63;21.20;;;9.90;74.20;;;;;;5078137;28;20063;-93
2022/03/02 12:32:15;;;;;;;24.23;20.85;;;10.00;75.10;;;;;;5039090;28;20067;-92
2022/03/02 12:34:52;;;;;;;26.23;21.38;;;10.00;73.20;;;;;;5071246;28;20057;-92
2022/03/02 12:37:20;;;;;;;26.63;21.85;;;10.00;74.30;;;;;;5077526;28;20252;-92
2022/03/02 12:39:47;;;;;;;26.75;21.17;;;10.00;72.40;;;;;;5078962;28;20036;-94